Time;durP1;ratioP1;P1;durP2;ratioP2;P2;SDS_P1;SDS_P2;PMS_P1;PMS_P2;Temp;Humidity;BMP_temperature;BMP_pressure;BME280_temperature;BME280_humidity;BME280_pressure;Samples;Min_cycle;Max_cycle;Signal;HPM_P1;HPM_P2
2021/05/23 00:00:15;;;;;;;;;;;9.30;80.60;;;;;;4929224;28;19915;-68
2021/05/23 00:02:40;;;;;;;;;;;9.40;80.60;;;;;;4921237;28;19954;-68
2021/05/23 00:05:08;;;;;;;;;;;9.40;79.10;;;;;;4926351;28;19985;-68
2021/05/23 00:07:37;;;;;;;;;;;9.40;78.80;;;;;;4923923;28;20000;-69
2021/05/23 00:10:04;;;;;;;;;;;9.40;79.20;;;;;;4928963;28;19923;-68
2021/05/23 00:12:29;;;;;;;;;;;9.30;80.10;;;;;;4930868;28;19916;-69
2021/05/23 00:14:55;;;;;;;;;;;9.30;80.20;;;;;;4929463;28;20421;-69
2021/05/23 00:17:20;;;;;;;;;;;9.30;80.70;;;;;;4923220;28;20009;-69
2021/05/23 00:19:46;;;;;;;;;;;9.30;80.60;;;;;;4932696;28;20390;-68
2021/05/23 00:22:11;;;;;;;;;;;9.30;80.80;;;;;;4925296;28;20005;-68
2021/05/23 00:24:37;;;;;;;;;;;9.30;79.60;;;;;;4922913;28;20393;-68
2021/05/23 00:27:02;;;;;;;;;;;9.30;80.60;;;;;;4925868;28;19983;-69
2021/05/23 00:29:28;;;;;;;;;;;9.30;80.50;;;;;;4922823;28;20009;-69
2021/05/23 00:31:53;;;;;;;;;;;9.30;80.30;;;;;;4926791;28;19923;-69
2021/05/23 00:34:19;;;;;;;;;;;9.20;80.20;;;;;;4927126;28;19954;-68
2021/05/23 00:36:45;;;;;;;;;;;9.20;80.30;;;;;;4929008;28;20444;-68
2021/05/23 00:39:11;;;;;;;;;;;9.20;80.50;;;;;;4929515;28;19922;-67
2021/05/23 00:41:36;;;;;;;;;;;9.20;80.80;;;;;;4925591;28;19923;-70
2021/05/23 00:44:02;;;;;;;;;;;9.20;80.70;;;;;;4924110;28;19951;-67
2021/05/23 00:46:28;;;;;;;;;;;9.10;80.40;;;;;;4920106;28;19921;-68
2021/05/23 00:48:53;;;;;;;;;;;9.10;81.10;;;;;;4923506;28;19997;-67
2021/05/23 00:51:19;;;;;;;;;;;9.10;81.20;;;;;;4929434;28;19961;-68
2021/05/23 00:53:44;;;;;;;;;;;9.10;81.40;;;;;;4920393;28;19915;-68
2021/05/23 00:56:12;;;;;;;;;;;9.10;81.90;;;;;;4927412;28;19996;-69
2021/05/23 00:58:38;;;;;;;;;;;9.10;81.80;;;;;;4918401;28;20103;-69
2021/05/23 01:01:09;;;;;;;;;;;9.00;82.00;;;;;;4925281;28;20033;-68
2021/05/23 01:03:34;;;;;;;;;;;9.00;81.80;;;;;;4918014;28;19935;-68
2021/05/23 01:06:03;;;;;;;;;;;9.00;82.30;;;;;;4922522;28;19933;-68
2021/05/23 01:08:29;;;;;;;;;;;8.90;82.40;;;;;;4919719;28;19915;-68
2021/05/23 01:11:03;;;;;;;;;;;9.00;82.50;;;;;;4923450;28;20573;-68
2021/05/23 01:13:35;;;;;;;;;;;9.00;82.10;;;;;;4935685;28;19941;-68
2021/05/23 01:16:11;;;;;;;;;;;8.90;82.70;;;;;;4921549;28;19925;-68
2021/05/23 01:18:49;;;;;;;;;;;8.90;83.30;;;;;;4918338;28;20017;-67
2021/05/23 01:21:15;;;;;;;;;;;8.80;84.20;;;;;;4922061;28;19941;-68
2021/05/23 01:23:45;;;;;;;;;;;8.70;84.70;;;;;;4916208;28;22782;-68
2021/05/23 01:26:13;;;;;;;;;;;8.70;85.20;;;;;;4918201;29;19921;-68
2021/05/23 01:28:43;;;;;;;;;;;8.60;85.70;;;;;;4920790;29;19915;-68
2021/05/23 01:31:13;;;;;;;;;;;8.50;86.40;;;;;;4923466;29;19931;-68
2021/05/23 01:33:38;;;;;;;;;;;8.50;86.40;;;;;;4918964;28;20188;-68
2021/05/23 01:36:05;;;;;;;;;;;8.50;86.60;;;;;;4952530;28;20575;-67
2021/05/23 01:38:30;;;;;;;;;;;8.50;86.80;;;;;;4921631;28;19987;-68
2021/05/23 01:40:58;;;;;;;;;;;8.50;86.90;;;;;;4923469;28;20065;-70
2021/05/23 01:43:24;;;;;;;;;;;8.50;87.00;;;;;;4917755;28;19930;-69
2021/05/23 01:45:50;;;;;;;;;;;8.50;87.00;;;;;;4920355;29;19915;-68
2021/05/23 01:48:15;;;;;;;;;;;8.40;87.00;;;;;;4921634;28;19918;-68
2021/05/23 01:50:41;;;;;;;;;;;8.40;86.90;;;;;;4922754;28;20284;-67
2021/05/23 01:53:07;;;;;;;;;;;8.40;87.00;;;;;;4918698;28;19987;-68
2021/05/23 01:55:33;;;;;;;;;;;8.40;87.20;;;;;;4923195;28;19919;-68
2021/05/23 01:57:59;;;;;;;;;;;8.30;87.20;;;;;;4942404;28;19966;-67
2021/05/23 02:00:26;;;;;;;;;;;8.30;87.20;;;;;;4928725;28;19923;-68
2021/05/23 02:02:52;;;;;;;;;;;8.30;87.40;;;;;;4918640;28;19931;-68
2021/05/23 02:05:17;;;;;;;;;;;8.30;87.60;;;;;;4922775;28;20301;-68
2021/05/23 02:07:43;;;;;;;;;;;8.30;87.40;;;;;;4921549;29;20006;-67
2021/05/23 02:10:10;;;;;;;;;;;8.30;87.40;;;;;;4921396;28;20021;-68
2021/05/23 02:12:35;;;;;;;;;;;8.30;87.20;;;;;;4921071;29;20018;-68
2021/05/23 02:15:03;;;;;;;;;;;8.30;87.10;;;;;;4918776;29;20452;-67
2021/05/23 02:17:29;;;;;;;;;;;8.30;87.30;;;;;;4931848;28;19977;-68
2021/05/23 02:19:54;;;;;;;;;;;8.20;87.10;;;;;;4918005;28;19980;-68
2021/05/23 02:22:20;;;;;;;;;;;8.20;87.30;;;;;;4925065;28;19976;-68
2021/05/23 02:24:45;;;;;;;;;;;8.20;87.30;;;;;;4926435;28;20404;-68
2021/05/23 02:27:11;;;;;;;;;;;8.20;87.50;;;;;;4925297;28;19915;-69
2021/05/23 02:29:37;;;;;;;;;;;8.20;87.50;;;;;;4924536;29;19981;-69
2021/05/23 02:32:06;;;;;;;;;;;8.20;87.60;;;;;;4923713;29;19942;-68
2021/05/23 02:34:31;;;;;;;;;;;8.20;86.90;;;;;;4924498;29;19925;-69
2021/05/23 02:36:57;;;;;;;;;;;8.10;87.10;;;;;;4924513;28;20021;-68
2021/05/23 02:39:23;;;;;;;;;;;8.10;87.20;;;;;;4940761;28;21319;-67
2021/05/23 02:41:48;;;;;;;;;;;8.00;87.20;;;;;;4925557;28;20355;-69
2021/05/23 02:44:14;;;;;;;;;;;7.90;87.70;;;;;;4924419;28;19923;-66
2021/05/23 02:46:39;;;;;;;;;;;7.80;87.90;;;;;;4923965;29;19923;-68
2021/05/23 02:49:05;;;;;;;;;;;7.70;88.30;;;;;;4921414;29;19919;-67
2021/05/23 02:51:30;;;;;;;;;;;7.60;88.60;;;;;;4923919;28;20236;-68
2021/05/23 02:53:56;;;;;;;;;;;7.50;88.80;;;;;;4923515;29;19919;-68
2021/05/23 02:56:21;;;;;;;;;;;7.40;89.10;;;;;;4924984;28;19919;-68
2021/05/23 02:58:47;;;;;;;;;;;7.30;89.40;;;;;;4923004;28;19973;-69
2021/05/23 03:01:12;;;;;;;;;;;7.30;89.60;;;;;;4924757;28;19926;-68
2021/05/23 03:03:38;;;;;;;;;;;7.20;89.60;;;;;;4923242;29;20341;-68
2021/05/23 03:06:03;;;;;;;;;;;7.20;89.50;;;;;;4920916;29;19923;-68
2021/05/23 03:08:29;;;;;;;;;;;7.10;89.90;;;;;;4923889;28;20398;-67
2021/05/23 03:10:55;;;;;;;;;;;7.10;89.90;;;;;;4925350;28;19926;-68
2021/05/23 03:13:21;;;;;;;;;;;7.00;90.10;;;;;;4924982;29;20259;-68
2021/05/23 03:15:46;;;;;;;;;;;6.90;90.40;;;;;;4925083;28;19930;-67
2021/05/23 03:18:12;;;;;;;;;;;6.90;90.80;;;;;;4922554;28;19915;-67
2021/05/23 03:20:38;;;;;;;;;;;6.80;90.80;;;;;;4925056;28;20449;-67
2021/05/23 03:23:04;;;;;;;;;;;6.90;91.00;;;;;;4921329;29;20679;-67
2021/05/23 03:25:30;;;;;;;;;;;7.00;90.80;;;;;;4924504;29;19919;-67
2021/05/23 03:27:57;;;;;;;;;;;7.00;90.80;;;;;;4921218;29;19938;-68
2021/05/23 03:30:30;;;;;;;;;;;7.10;90.50;;;;;;4925068;28;19915;-68
2021/05/23 03:32:55;;;;;;;;;;;7.10;90.50;;;;;;4919325;29;20260;-68
2021/05/23 03:35:21;;;;;;;;;;;7.20;90.40;;;;;;4925169;29;19922;-67
2021/05/23 03:37:47;;;;;;;;;;;7.20;90.50;;;;;;4920757;28;19915;-68
2021/05/23 03:40:15;;;;;;;;;;;7.30;90.50;;;;;;4920212;28;19926;-68
2021/05/23 03:42:42;;;;;;;;;;;7.30;90.40;;;;;;4920711;29;19930;-67
2021/05/23 03:45:08;;;;;;;;;;;7.30;90.40;;;;;;4915907;28;19915;-67
2021/05/23 03:47:34;;;;;;;;;;;7.30;90.50;;;;;;4918948;28;20009;-68
2021/05/23 03:49:59;;;;;;;;;;;7.30;90.50;;;;;;4912161;28;20022;-67
2021/05/23 03:52:25;;;;;;;;;;;7.40;90.50;;;;;;4916741;28;19942;-68
2021/05/23 03:54:50;;;;;;;;;;;7.40;90.40;;;;;;4924846;28;20257;-68
2021/05/23 03:57:16;;;;;;;;;;;7.50;90.30;;;;;;4921548;28;20356;-67
2021/05/23 03:59:41;;;;;;;;;;;7.50;90.30;;;;;;4923323;28;19922;-67
2021/05/23 04:02:07;;;;;;;;;;;7.50;90.30;;;;;;4922026;29;19914;-68
2021/05/23 04:07:18;;;;;;;;;;;7.50;90.30;;;;;;4916341;28;19926;-67
2021/05/23 04:09:44;;;;;;;;;;;7.50;90.40;;;;;;4920264;28;20075;-69
2021/05/23 04:12:13;;;;;;;;;;;7.50;90.40;;;;;;4921861;29;20013;-69
2021/05/23 04:14:38;;;;;;;;;;;7.50;90.40;;;;;;4923478;28;19930;-69
2021/05/23 04:17:03;;;;;;;;;;;7.50;90.50;;;;;;4917897;28;20337;-68
2021/05/23 04:19:29;;;;;;;;;;;7.40;90.50;;;;;;4956251;28;20016;-67
2021/05/23 04:21:54;;;;;;;;;;;7.30;90.70;;;;;;4918077;28;20013;-67
2021/05/23 04:24:20;;;;;;;;;;;7.30;91.00;;;;;;4927978;28;20034;-68
2021/05/23 04:26:46;;;;;;;;;;;7.30;91.10;;;;;;4922672;29;19997;-66
2021/05/23 04:29:11;;;;;;;;;;;7.30;91.00;;;;;;4924808;28;19930;-67
2021/05/23 04:31:37;;;;;;;;;;;7.30;91.00;;;;;;4922674;28;19911;-69
2021/05/23 04:34:02;;;;;;;;;;;7.30;90.70;;;;;;4950460;28;20418;-67
2021/05/23 04:36:28;;;;;;;;;;;7.40;90.60;;;;;;4920112;28;20009;-67
2021/05/23 04:38:53;;;;;;;;;;;7.40;90.40;;;;;;4921375;28;20282;-68
2021/05/23 04:41:19;;;;;;;;;;;7.50;90.30;;;;;;4915433;29;19919;-68
2021/05/23 04:43:44;;;;;;;;;;;7.50;90.50;;;;;;4924165;28;19922;-68
2021/05/23 04:46:10;;;;;;;;;;;7.50;90.20;;;;;;4922097;28;19919;-69
2021/05/23 04:48:35;;;;;;;;;;;7.60;90.20;;;;;;4921092;28;20227;-67
2021/05/23 04:51:01;;;;;;;;;;;7.60;90.30;;;;;;4920568;29;19929;-68
2021/05/23 04:53:26;;;;;;;;;;;7.70;90.00;;;;;;4917129;28;19925;-68
2021/05/23 04:55:52;;;;;;;;;;;7.70;90.00;;;;;;4921874;28;20441;-68
2021/05/23 04:58:17;;;;;;;;;;;7.70;90.10;;;;;;4917335;28;19926;-68
2021/05/23 05:00:42;;;;;;;;;;;7.80;89.70;;;;;;4917980;28;20376;-68
2021/05/23 05:03:08;;;;;;;;;;;7.80;89.70;;;;;;4918725;29;20008;-68
2021/05/23 05:05:33;;;;;;;;;;;7.90;89.70;;;;;;4920034;28;19922;-67
2021/05/23 05:07:59;;;;;;;;;;;7.90;89.70;;;;;;4921143;28;20252;-68
2021/05/23 05:10:24;;;;;;;;;;;8.00;89.70;;;;;;4921512;29;20005;-69
2021/05/23 05:12:50;;;;;;;;;;;8.00;89.60;;;;;;4929485;28;20365;-69
2021/05/23 05:15:15;;;;;;;;;;;8.10;89.10;;;;;;4916828;28;20289;-69
2021/05/23 05:17:41;;;;;;;;;;;8.10;89.10;;;;;;4923158;29;19961;-69
2021/05/23 05:20:07;;;;;;;;;;;8.20;88.80;;;;;;4919890;28;19919;-68
2021/05/23 05:22:33;;;;;;;;;;;8.20;88.50;;;;;;4918674;29;20029;-69
2021/05/23 05:24:59;;;;;;;;;;;8.30;88.10;;;;;;4915402;29;19926;-69
2021/05/23 05:27:24;;;;;;;;;;;8.40;88.10;;;;;;4908520;29;20001;-69
2021/05/23 05:29:50;;;;;;;;;;;8.50;88.10;;;;;;4914163;28;19967;-69
2021/05/23 05:32:15;;;;;;;;;;;8.50;87.60;;;;;;4920272;28;20414;-68
2021/05/23 05:34:41;;;;;;;;;;;8.60;87.10;;;;;;4921032;28;19935;-68
2021/05/23 05:37:06;;;;;;;;;;;8.70;87.10;;;;;;4918061;28;19938;-68
2021/05/23 05:39:32;;;;;;;;;;;8.60;86.40;;;;;;4917917;28;19970;-70
2021/05/23 05:41:58;;;;;;;;;;;8.70;86.40;;;;;;4916589;28;19926;-68
2021/05/23 05:44:24;;;;;;;;;;;8.80;85.70;;;;;;4920162;29;19928;-69
2021/05/23 05:46:51;;;;;;;;;;;8.80;86.10;;;;;;4921233;28;19919;-68
2021/05/23 05:49:16;;;;;;;;;;;8.90;85.10;;;;;;4917867;28;19966;-69
2021/05/23 05:51:41;;;;;;;;;;;8.90;85.10;;;;;;4916465;28;20065;-68
2021/05/23 05:54:07;;;;;;;;;;;9.00;84.80;;;;;;4924284;29;19951;-68
2021/05/23 05:56:33;;;;;;;;;;;9.10;84.70;;;;;;4913466;29;19919;-69
2021/05/23 05:58:58;;;;;;;;;;;9.30;83.80;;;;;;4934100;28;19995;-68
2021/05/23 06:01:24;;;;;;;;;;;9.40;83.60;;;;;;4938163;28;19929;-68
2021/05/23 06:03:49;;;;;;;;;;;9.50;83.50;;;;;;4917611;29;19915;-67
2021/05/23 06:06:15;;;;;;;;;;;9.50;83.00;;;;;;4924086;29;19919;-69
2021/05/23 06:08:40;;;;;;;;;;;9.50;82.90;;;;;;4919840;29;20839;-68
2021/05/23 06:11:06;;;;;;;;;;;9.50;82.80;;;;;;4921646;28;19923;-68
2021/05/23 06:13:31;;;;;;;;;;;9.50;82.60;;;;;;4919250;28;19938;-68
2021/05/23 06:15:57;;;;;;;;;;;9.50;82.10;;;;;;4925923;28;19945;-68
2021/05/23 06:18:23;;;;;;;;;;;9.70;81.70;;;;;;4919455;29;19997;-69
2021/05/23 06:20:48;;;;;;;;;;;9.80;81.10;;;;;;4924543;28;20184;-66
2021/05/23 06:23:15;;;;;;;;;;;9.90;80.60;;;;;;4921227;28;19923;-68
2021/05/23 06:25:40;;;;;;;;;;;9.80;81.00;;;;;;4925188;28;19922;-68
2021/05/23 06:28:06;;;;;;;;;;;10.00;80.90;;;;;;4918577;28;19997;-69
2021/05/23 06:30:31;;;;;;;;;;;10.20;81.10;;;;;;4921554;28;19985;-70
2021/05/23 06:32:57;;;;;;;;;;;10.10;79.40;;;;;;4934948;28;19915;-68
2021/05/23 06:35:22;;;;;;;;;;;10.10;78.80;;;;;;4920005;28;19978;-67
2021/05/23 06:37:49;;;;;;;;;;;10.20;79.80;;;;;;4917866;29;19958;-68
2021/05/23 06:40:14;;;;;;;;;;;10.40;78.10;;;;;;4921839;28;20085;-68
2021/05/23 06:42:40;;;;;;;;;;;10.50;78.50;;;;;;4930250;28;20021;-68
2021/05/23 06:45:06;;;;;;;;;;;10.70;78.40;;;;;;4921769;28;19941;-68
2021/05/23 06:47:31;;;;;;;;;;;10.90;78.00;;;;;;4914300;28;19915;-69
2021/05/23 06:49:57;;;;;;;;;;;10.60;76.10;;;;;;4920919;28;19923;-69
2021/05/23 06:52:22;;;;;;;;;;;10.70;76.80;;;;;;4918706;29;19960;-69
2021/05/23 06:54:48;;;;;;;;;;;10.90;75.40;;;;;;4918736;28;20050;-68
2021/05/23 06:57:14;;;;;;;;;;;11.00;75.10;;;;;;4921711;29;20493;-68
2021/05/23 06:59:39;;;;;;;;;;;11.00;73.90;;;;;;4927505;28;19931;-67
2021/05/23 07:02:05;;;;;;;;;;;11.30;75.70;;;;;;4921205;28;20501;-69
2021/05/23 07:04:30;;;;;;;;;;;11.30;74.10;;;;;;4922785;28;20013;-68
2021/05/23 07:06:55;;;;;;;;;;;11.30;73.40;;;;;;4921053;28;19919;-66
2021/05/23 07:09:21;;;;;;;;;;;11.40;72.90;;;;;;4921107;29;19998;-68
2021/05/23 07:11:46;;;;;;;;;;;11.40;72.80;;;;;;4926387;28;20307;-69
2021/05/23 07:14:12;;;;;;;;;;;11.50;72.50;;;;;;4918266;28;20015;-69
2021/05/23 07:16:37;;;;;;;;;;;11.60;73.10;;;;;;4926255;28;19918;-69
2021/05/23 07:19:03;;;;;;;;;;;11.70;73.20;;;;;;4918633;28;19919;-70
2021/05/23 07:21:28;;;;;;;;;;;11.40;71.30;;;;;;4922882;28;20019;-70
2021/05/23 07:23:54;;;;;;;;;;;11.60;71.50;;;;;;4917347;28;20086;-70
2021/05/23 07:26:19;;;;;;;;;;;11.60;71.00;;;;;;4919723;29;19922;-69
2021/05/23 07:28:45;;;;;;;;;;;11.90;71.90;;;;;;4922424;28;19965;-69
2021/05/23 07:31:11;;;;;;;;;;;11.70;69.40;;;;;;4919362;28;20386;-69
2021/05/23 07:33:37;;;;;;;;;;;11.60;70.50;;;;;;4915744;28;19926;-69
2021/05/23 07:36:05;;;;;;;;;;;12.00;68.80;;;;;;4916458;28;19963;-70
2021/05/23 07:38:30;;;;;;;;;;;12.00;68.30;;;;;;4915846;28;19965;-70
2021/05/23 07:40:56;;;;;;;;;;;12.50;68.70;;;;;;4917520;28;19922;-70
2021/05/23 07:43:21;;;;;;;;;;;12.40;67.50;;;;;;4920104;29;20299;-68
2021/05/23 07:45:48;;;;;;;;;;;12.30;68.20;;;;;;4917033;28;19915;-68
2021/05/23 07:48:13;;;;;;;;;;;12.50;68.60;;;;;;4917774;28;20319;-69
2021/05/23 07:50:39;;;;;;;;;;;12.20;67.90;;;;;;4923193;28;19914;-69
2021/05/23 07:53:04;;;;;;;;;;;12.40;68.20;;;;;;4920481;29;19926;-70
2021/05/23 07:55:30;;;;;;;;;;;12.40;66.90;;;;;;4918914;28;19915;-70
2021/05/23 07:57:55;;;;;;;;;;;11.90;68.10;;;;;;4918566;28;20006;-69
2021/05/23 08:00:21;;;;;;;;;;;11.60;68.80;;;;;;4921054;28;19965;-67
2021/05/23 08:02:47;;;;;;;;;;;11.70;70.30;;;;;;4917684;28;20018;-68
2021/05/23 08:05:12;;;;;;;;;;;11.90;69.10;;;;;;4918729;28;20232;-70
2021/05/23 08:07:38;;;;;;;;;;;11.90;67.10;;;;;;4918482;28;19919;-68
2021/05/23 08:10:04;;;;;;;;;;;11.80;68.80;;;;;;4921542;28;19929;-69
2021/05/23 08:12:30;;;;;;;;;;;11.90;68.30;;;;;;4911960;29;19970;-69
2021/05/23 08:14:56;;;;;;;;;;;11.70;69.40;;;;;;4938193;28;20022;-69
2021/05/23 08:17:21;;;;;;;;;;;11.80;70.00;;;;;;4917495;28;19953;-69
2021/05/23 08:19:47;;;;;;;;;;;11.70;70.30;;;;;;4917703;28;19983;-70
2021/05/23 08:22:13;;;;;;;;;;;11.80;69.90;;;;;;4928573;28;19962;-69
2021/05/23 08:24:38;;;;;;;;;;;11.80;70.90;;;;;;4925639;28;20006;-68
2021/05/23 08:27:04;;;;;;;;;;;12.10;70.80;;;;;;4933154;28;19923;-69
2021/05/23 08:29:30;;;;;;;;;;;12.00;68.90;;;;;;4917533;28;19933;-69
2021/05/23 08:31:57;;;;;;;;;;;11.90;69.00;;;;;;4915890;28;20048;-69
2021/05/23 08:34:22;;;;;;;;;;;11.90;67.70;;;;;;4920492;28;20067;-68
2021/05/23 08:36:48;;;;;;;;;;;12.10;68.20;;;;;;4952504;28;19923;-70
2021/05/23 08:39:13;;;;;;;;;;;12.70;65.60;;;;;;4917246;28;20358;-69
2021/05/23 08:41:39;;;;;;;;;;;12.50;65.40;;;;;;4918279;28;20022;-69
2021/05/23 08:44:05;;;;;;;;;;;12.30;66.20;;;;;;4917631;28;20001;-68
2021/05/23 08:46:32;;;;;;;;;;;12.10;67.30;;;;;;4947900;28;20090;-69
2021/05/23 08:48:58;;;;;;;;;;;12.20;66.90;;;;;;4929882;28;19919;-68
2021/05/23 08:51:24;;;;;;;;;;;12.10;67.70;;;;;;4921216;28;19925;-69
2021/05/23 08:53:50;;;;;;;;;;;12.20;68.60;;;;;;4913809;28;19919;-69
2021/05/23 08:56:15;;;;;;;;;;;12.10;68.50;;;;;;4918539;28;19922;-69
2021/05/23 08:58:41;;;;;;;;;;;12.20;67.30;;;;;;4920913;28;19933;-69
2021/05/23 09:01:06;;;;;;;;;;;12.50;67.00;;;;;;4947116;28;19922;-69
2021/05/23 09:03:32;;;;;;;;;;;12.50;67.20;;;;;;4917538;28;20259;-69
2021/05/23 09:05:57;;;;;;;;;;;12.70;66.70;;;;;;4925444;28;19945;-69
2021/05/23 09:08:30;;;;;;;;;;;12.60;65.50;;;;;;4919899;29;19926;-69
2021/05/23 09:11:00;;;;;;;;;;;12.60;65.20;;;;;;4922784;28;20085;-68
2021/05/23 09:13:32;;;;;;;;;;;12.70;66.40;;;;;;4913518;28;19945;-69
2021/05/23 09:16:02;;;;;;;;;;;12.80;65.20;;;;;;4930894;28;20012;-68
2021/05/23 09:18:42;;;;;;;;;;;13.00;65.70;;;;;;4917950;28;20335;-69
2021/05/23 09:21:08;;;;;;;;;;;13.30;65.30;;;;;;4934830;28;19914;-67
2021/05/23 09:23:45;;;;;;;;;;;13.10;63.80;;;;;;4918174;28;20389;-70
2021/05/23 09:26:19;;;;;;;;;;;13.20;64.60;;;;;;4924597;28;19919;-69
2021/05/23 09:28:45;;;;;;;;;;;13.10;59.10;;;;;;4919686;28;19915;-69
2021/05/23 09:31:11;;;;;;;;;;;13.10;61.70;;;;;;4915614;28;20347;-69
2021/05/23 09:33:41;;;;;;;;;;;13.30;63.20;;;;;;4898587;28;19915;-69
2021/05/23 09:36:06;;;;;;;;;;;13.40;64.00;;;;;;4924708;28;20005;-68
2021/05/23 09:38:32;;;;;;;;;;;13.40;62.40;;;;;;4921992;28;20326;-70
2021/05/23 09:40:57;;;;;;;;;;;13.30;60.40;;;;;;4923489;28;19919;-69
2021/05/23 09:43:23;;;;;;;;;;;13.70;59.80;;;;;;4921923;28;20345;-69
2021/05/23 09:45:50;;;;;;;;;;;14.00;59.70;;;;;;4937610;28;19959;-69
2021/05/23 09:48:16;;;;;;;;;;;14.10;58.70;;;;;;4921607;28;19967;-69
2021/05/23 09:50:43;;;;;;;;;;;14.10;60.90;;;;;;4930215;28;19924;-69
2021/05/23 09:53:19;;;;;;;;;;;14.00;57.60;;;;;;4921201;28;19925;-70
2021/05/23 09:56:03;;;;;;;;;;;13.70;55.00;;;;;;4938766;28;19919;-68
2021/05/23 09:58:30;;;;;;;;;;;14.60;55.20;;;;;;4917002;28;20433;-69
2021/05/23 10:00:56;;;;;;;;;;;14.60;51.90;;;;;;4915841;28;19985;-69
2021/05/23 10:03:26;;;;;;;;;;;15.20;53.60;;;;;;4935212;28;19923;-68
2021/05/23 10:05:51;;;;;;;;;;;15.50;52.00;;;;;;4926694;28;19915;-69
2021/05/23 10:08:17;;;;;;;;;;;14.80;50.80;;;;;;4923084;28;19945;-68
2021/05/23 10:10:43;;;;;;;;;;;15.20;51.10;;;;;;4918757;28;19919;-68
2021/05/23 10:13:09;;;;;;;;;;;15.60;50.40;;;;;;4916563;28;19923;-68
2021/05/23 10:15:36;;;;;;;;;;;15.10;50.60;;;;;;4921111;28;21414;-69
2021/05/23 10:18:02;;;;;;;;;;;15.00;51.10;;;;;;4917131;28;20050;-69
2021/05/23 10:20:28;;;;;;;;;;;14.60;53.00;;;;;;4924010;28;19979;-69
2021/05/23 10:22:54;;;;;;;;;;;14.50;53.20;;;;;;4918952;28;19923;-67
2021/05/23 10:25:20;;;;;;;;;;;14.40;54.30;;;;;;4943674;28;20069;-69
2021/05/23 10:27:46;;;;;;;;;;;15.00;54.70;;;;;;4940107;28;20327;-68
2021/05/23 10:30:13;;;;;;;;;;;15.00;53.50;;;;;;4939764;28;20030;-70
2021/05/23 10:32:39;;;;;;;;;;;14.80;56.30;;;;;;4920220;28;19922;-69
2021/05/23 10:35:21;;;;;;;;;;;14.80;53.80;;;;;;4919983;28;19999;-69
2021/05/23 10:37:48;;;;;;;;;;;14.60;55.00;;;;;;4930205;28;19925;-69
2021/05/23 10:40:26;;;;;;;;;;;15.60;53.70;;;;;;4920416;28;20004;-70
2021/05/23 10:42:56;;;;;;;;;;;16.10;51.00;;;;;;4928737;28;19915;-68
2021/05/23 10:45:29;;;;;;;;;;;15.70;51.60;;;;;;4924745;28;20065;-67
2021/05/23 10:47:56;;;;;;;;;;;15.30;51.80;;;;;;4928333;28;20014;-70
2021/05/23 10:50:32;;;;;;;;;;;15.00;52.30;;;;;;4931567;28;20324;-68
2021/05/23 10:52:58;;;;;;;;;;;14.80;52.40;;;;;;4932742;28;19937;-69
2021/05/23 10:55:24;;;;;;;;;;;14.80;53.20;;;;;;4919345;28;20276;-68
2021/05/23 10:57:50;;;;;;;;;;;14.50;53.80;;;;;;4933137;28;19915;-68
2021/05/23 11:00:19;;;;;;;;;;;15.20;53.80;;;;;;4926228;28;19919;-68
2021/05/23 11:02:46;;;;;;;;;;;15.60;52.00;;;;;;4929506;28;20471;-68
2021/05/23 11:05:16;;;;;;;;;;;15.60;52.50;;;;;;4928905;28;20490;-69
2021/05/23 11:08:01;;;;;;;;;;;15.30;52.60;;;;;;4926655;28;20387;-69
2021/05/23 11:10:31;;;;;;;;;;;16.20;52.50;;;;;;4934662;28;20095;-69
2021/05/23 11:12:57;;;;;;;;;;;15.40;52.50;;;;;;4925980;28;20493;-69
2021/05/23 11:15:23;;;;;;;;;;;15.00;53.50;;;;;;4934261;28;20314;-70
2021/05/23 11:17:50;;;;;;;;;;;14.80;54.90;;;;;;4932941;28;19979;-69
2021/05/23 11:20:17;;;;;;;;;;;14.90;55.20;;;;;;4929911;28;19977;-69
2021/05/23 11:22:45;;;;;;;;;;;14.70;54.10;;;;;;4921155;28;19997;-67
2021/05/23 11:25:12;;;;;;;;;;;14.60;55.90;;;;;;4933782;28;19958;-69
2021/05/23 11:27:37;;;;;;;;;;;14.60;57.60;;;;;;4946686;28;19959;-69
2021/05/23 11:30:09;;;;;;;;;;;14.50;56.40;;;;;;4927767;28;19986;-69
2021/05/23 11:32:34;;;;;;;;;;;14.60;55.60;;;;;;4933108;28;19913;-69
2021/05/23 11:35:00;;;;;;;;;;;14.30;56.50;;;;;;4925537;28;19919;-69
2021/05/23 11:37:34;;;;;;;;;;;14.20;55.90;;;;;;4941844;28;19985;-68
2021/05/23 11:40:07;;;;;;;;;;;14.30;55.90;;;;;;4921769;28;19972;-69
2021/05/23 11:42:40;;;;;;;;;;;14.30;55.30;;;;;;4921703;28;19914;-68
2021/05/23 11:45:06;;;;;;;;;;;14.60;56.70;;;;;;4926296;28;20276;-69
2021/05/23 11:47:42;;;;;;;;;;;14.80;56.20;;;;;;4923584;28;19943;-68
2021/05/23 11:50:08;;;;;;;;;;;15.10;55.50;;;;;;4923812;28;19915;-69
2021/05/23 11:52:41;;;;;;;;;;;15.30;54.70;;;;;;4925899;28;19928;-69
2021/05/23 11:55:07;;;;;;;;;;;15.40;55.20;;;;;;4924376;28;19923;-68
2021/05/23 11:57:32;;;;;;;;;;;15.10;54.90;;;;;;4946806;28;19926;-69
2021/05/23 11:59:58;;;;;;;;;;;14.70;56.50;;;;;;4920686;28;19983;-68
2021/05/23 12:02:29;;;;;;;;;;;14.50;59.00;;;;;;4933497;28;20006;-68
2021/05/23 12:05:00;;;;;;;;;;;14.30;59.40;;;;;;4922826;28;19919;-69
2021/05/23 12:07:35;;;;;;;;;;;14.00;59.60;;;;;;4925048;28;19919;-67
2021/05/23 12:10:00;;;;;;;;;;;14.10;60.70;;;;;;4940126;28;20054;-68
2021/05/23 12:12:26;;;;;;;;;;;14.00;60.00;;;;;;4920464;28;20007;-68
2021/05/23 12:14:51;;;;;;;;;;;14.10;60.10;;;;;;4927496;28;19923;-67
2021/05/23 12:17:18;;;;;;;;;;;14.10;60.10;;;;;;4923063;28;19996;-68
2021/05/23 12:19:56;;;;;;;;;;;14.10;61.20;;;;;;4935358;28;19974;-68
2021/05/23 12:22:23;;;;;;;;;;;14.30;61.10;;;;;;4921237;28;19915;-67
2021/05/23 12:24:50;;;;;;;;;;;14.30;61.30;;;;;;4934009;28;20067;-68
2021/05/23 12:27:26;;;;;;;;;;;14.40;60.40;;;;;;4926687;28;20354;-67
2021/05/23 12:29:52;;;;;;;;;;;14.40;60.10;;;;;;4918566;28;19919;-68
2021/05/23 12:32:19;;;;;;;;;;;14.70;60.80;;;;;;4922310;28;19926;-67
2021/05/23 12:34:44;;;;;;;;;;;14.90;58.50;;;;;;4922782;28;19934;-70
2021/05/23 12:37:10;;;;;;;;;;;15.00;60.40;;;;;;4939425;28;20217;-68
2021/05/23 12:39:36;;;;;;;;;;;14.70;59.30;;;;;;4925861;28;19918;-68
2021/05/23 12:42:02;;;;;;;;;;;14.80;60.00;;;;;;4932417;28;19933;-69
2021/05/23 12:44:28;;;;;;;;;;;14.90;59.50;;;;;;4928458;28;19959;-68
2021/05/23 12:46:54;;;;;;;;;;;15.50;60.70;;;;;;4941257;28;19994;-68
2021/05/23 12:49:22;;;;;;;;;;;15.10;59.90;;;;;;4922786;28;20450;-69
2021/05/23 12:51:48;;;;;;;;;;;15.30;60.70;;;;;;4939980;28;20396;-68
2021/05/23 12:54:23;;;;;;;;;;;15.90;59.80;;;;;;4919398;28;20025;-68
2021/05/23 12:56:49;;;;;;;;;;;15.60;60.30;;;;;;4931518;28;19927;-70
2021/05/23 12:59:16;;;;;;;;;;;15.70;60.40;;;;;;4933746;28;19938;-68
2021/05/23 13:01:43;;;;;;;;;;;15.50;60.90;;;;;;4931320;28;19925;-69
2021/05/23 13:04:16;;;;;;;;;;;16.50;58.10;;;;;;4919720;28;20358;-69
2021/05/23 13:06:54;;;;;;;;;;;17.40;56.90;;;;;;4945820;28;19926;-70
2021/05/23 13:09:20;;;;;;;;;;;18.10;56.70;;;;;;4921421;28;20332;-69
2021/05/23 13:11:49;;;;;;;;;;;17.90;57.20;;;;;;4931283;28;19938;-70
2021/05/23 13:14:15;;;;;;;;;;;17.30;57.40;;;;;;4923019;28;19919;-69
2021/05/23 13:16:50;;;;;;;;;;;17.20;57.90;;;;;;4946313;28;20692;-70
2021/05/23 13:19:16;;;;;;;;;;;17.10;58.80;;;;;;4918598;28;19918;-69
2021/05/23 13:21:41;;;;;;;;;;;17.70;56.80;;;;;;4924010;28;20366;-69
2021/05/23 13:24:07;;;;;;;;;;;17.20;56.70;;;;;;4919591;28;20018;-69
2021/05/23 13:26:33;;;;;;;;;;;16.30;57.00;;;;;;4923252;28;19921;-69
2021/05/23 13:28:58;;;;;;;;;;;15.50;59.80;;;;;;4916497;28;20386;-69
2021/05/23 13:31:24;;;;;;;;;;;16.00;59.70;;;;;;4918506;28;19940;-69
2021/05/23 13:33:49;;;;;;;;;;;16.40;60.30;;;;;;4924162;28;20010;-69
2021/05/23 13:36:15;;;;;;;;;;;16.70;60.50;;;;;;4941374;28;19966;-69
2021/05/23 13:38:41;;;;;;;;;;;17.20;57.90;;;;;;4915633;28;20305;-68
2021/05/23 13:41:07;;;;;;;;;;;16.40;59.50;;;;;;4928791;28;20340;-69
2021/05/23 13:43:33;;;;;;;;;;;15.80;60.40;;;;;;4918124;28;19923;-69
2021/05/23 13:45:59;;;;;;;;;;;16.00;61.30;;;;;;4923931;28;19959;-68
2021/05/23 13:48:24;;;;;;;;;;;15.50;61.00;;;;;;4927579;28;19922;-69
2021/05/23 13:50:50;;;;;;;;;;;14.90;63.20;;;;;;4926015;28;20014;-68
2021/05/23 13:53:16;;;;;;;;;;;14.60;65.10;;;;;;4935571;28;20400;-68
2021/05/23 13:55:42;;;;;;;;;;;14.20;66.10;;;;;;4923224;28;19994;-68
2021/05/23 13:58:08;;;;;;;;;;;13.80;66.50;;;;;;4927678;28;20021;-68
2021/05/23 14:00:34;;;;;;;;;;;14.00;67.40;;;;;;4930691;28;19984;-68
2021/05/23 14:03:19;;;;;;;;;;;13.90;67.70;;;;;;4917884;28;19927;-68
2021/05/23 14:05:45;;;;;;;;;;;13.70;67.80;;;;;;4905731;28;19923;-68
2021/05/23 14:08:11;;;;;;;;;;;13.70;68.80;;;;;;4905763;28;19985;-68
2021/05/23 14:10:37;;;;;;;;;;;13.60;68.50;;;;;;4907002;28;19914;-68
2021/05/23 14:13:03;;;;;;;;;;;13.90;69.00;;;;;;4919305;28;21393;-68
2021/05/23 14:15:28;;;;;;;;;;;13.90;69.40;;;;;;4924347;28;20097;-67
2021/05/23 14:17:54;;;;;;;;;;;13.70;68.60;;;;;;4921874;28;19931;-67
2021/05/23 14:20:23;;;;;;;;;;;13.40;69.30;;;;;;4922431;28;19914;-68
2021/05/23 14:22:50;;;;;;;;;;;13.40;69.60;;;;;;4926090;28;19941;-67